sensor_id;sensor_type;location;lat;lon;timestamp;temperature;humidity
11122;DHT22;5615;49.304;10.576;2023-10-31T00:00:37;11.10;99.90
11122;DHT22;5615;49.304;10.576;2023-10-31T00:03:04;11.10;99.90
11122;DHT22;5615;49.304;10.576;2023-10-31T00:05:32;11.10;99.90
11122;DHT22;5615;49.304;10.576;2023-10-31T00:07:59;11.10;99.90
11122;DHT22;5615;49.304;10.576;2023-10-31T00:10:26;11.10;99.90
11122;DHT22;5615;49.304;10.576;2023-10-31T00:12:52;11.10;99.90
11122;DHT22;5615;49.304;10.576;2023-10-31T00:15:19;11.00;99.90
11122;DHT22;5615;49.304;10.576;2023-10-31T00:17:46;11.00;99.90
11122;DHT22;5615;49.304;10.576;2023-10-31T00:20:12;11.00;99.90
11122;DHT22;5615;49.304;10.576;2023-10-31T00:22:40;11.00;99.90
11122;DHT22;5615;49.304;10.576;2023-10-31T00:25:07;11.00;99.90
11122;DHT22;5615;49.304;10.576;2023-10-31T00:27:34;11.00;99.90
11122;DHT22;5615;49.304;10.576;2023-10-31T00:30:01;11.00;99.90
11122;DHT22;5615;49.304;10.576;2023-10-31T00:32:28;11.00;99.90
11122;DHT22;5615;49.304;10.576;2023-10-31T00:34:55;11.00;99.90
11122;DHT22;5615;49.304;10.576;2023-10-31T00:37:21;11.00;99.90
11122;DHT22;5615;49.304;10.576;2023-10-31T00:39:49;11.00;99.90
11122;DHT22;5615;49.304;10.576;2023-10-31T00:42:16;11.00;99.90
11122;DHT22;5615;49.304;10.576;2023-10-31T00:44:43;11.00;99.90
11122;DHT22;5615;49.304;10.576;2023-10-31T00:47:09;10.90;99.90
11122;DHT22;5615;49.304;10.576;2023-10-31T00:49:36;11.00;99.90
11122;DHT22;5615;49.304;10.576;2023-10-31T00:52:03;11.00;99.90
11122;DHT22;5615;49.304;10.576;2023-10-31T00:54:30;10.90;99.90
11122;DHT22;5615;49.304;10.576;2023-10-31T00:56:58;11.00;99.90
11122;DHT22;5615;49.304;10.576;2023-10-31T00:59:24;11.00;99.90
11122;DHT22;5615;49.304;10.576;2023-10-31T01:01:51;11.00;99.90
11122;DHT22;5615;49.304;10.576;2023-10-31T01:04:18;10.90;99.90
11122;DHT22;5615;49.304;10.576;2023-10-31T01:06:44;10.90;99.90
11122;DHT22;5615;49.304;10.576;2023-10-31T01:09:11;10.90;99.90
11122;DHT22;5615;49.304;10.576;2023-10-31T01:11:38;10.90;99.90
11122;DHT22;5615;49.304;10.576;2023-10-31T01:14:06;11.00;99.90
11122;DHT22;5615;49.304;10.576;2023-10-31T01:16:33;11.00;99.90
11122;DHT22;5615;49.304;10.576;2023-10-31T01:18:59;11.00;99.90
11122;DHT22;5615;49.304;10.576;2023-10-31T01:21:26;11.00;99.90
11122;DHT22;5615;49.304;10.576;2023-10-31T01:23:53;11.00;99.90
11122;DHT22;5615;49.304;10.576;2023-10-31T01:26:19;10.90;99.90
11122;DHT22;5615;49.304;10.576;2023-10-31T01:28:46;10.90;99.90
11122;DHT22;5615;49.304;10.576;2023-10-31T01:31:14;11.00;99.90
11122;DHT22;5615;49.304;10.576;2023-10-31T01:33:41;10.90;99.90
11122;DHT22;5615;49.304;10.576;2023-10-31T01:36:08;10.90;99.90
11122;DHT22;5615;49.304;10.576;2023-10-31T01:38:35;10.90;99.90
11122;DHT22;5615;49.304;10.576;2023-10-31T01:41:02;10.80;99.90
11122;DHT22;5615;49.304;10.576;2023-10-31T01:43:30;10.80;99.90
11122;DHT22;5615;49.304;10.576;2023-10-31T01:45:57;10.80;99.90
11122;DHT22;5615;49.304;10.576;2023-10-31T01:48:27;10.70;99.90
11122;DHT22;5615;49.304;10.576;2023-10-31T01:50:54;10.50;99.90
11122;DHT22;5615;49.304;10.576;2023-10-31T01:53:22;10.40;99.90
11122;DHT22;5615;49.304;10.576;2023-10-31T01:55:49;10.30;99.90
11122;DHT22;5615;49.304;10.576;2023-10-31T01:58:16;10.20;99.90
11122;DHT22;5615;49.304;10.576;2023-10-31T02:00:43;10.10;99.90
11122;DHT22;5615;49.304;10.576;2023-10-31T02:03:10;10.10;99.90
11122;DHT22;5615;49.304;10.576;2023-10-31T02:05:38;10.10;99.90
11122;DHT22;5615;49.304;10.576;2023-10-31T02:08:05;10.00;99.90
11122;DHT22;5615;49.304;10.576;2023-10-31T02:10:33;10.00;99.90
11122;DHT22;5615;49.304;10.576;2023-10-31T02:13:10;10.00;99.90
11122;DHT22;5615;49.304;10.576;2023-10-31T02:15:37;9.90;99.90
11122;DHT22;5615;49.304;10.576;2023-10-31T02:18:04;9.90;99.90
11122;DHT22;5615;49.304;10.576;2023-10-31T02:20:31;9.90;99.90
11122;DHT22;5615;49.304;10.576;2023-10-31T02:22:59;9.90;99.90
11122;DHT22;5615;49.304;10.576;2023-10-31T02:25:25;9.90;99.90
11122;DHT22;5615;49.304;10.576;2023-10-31T02:27:52;9.90;99.90
11122;DHT22;5615;49.304;10.576;2023-10-31T02:30:19;9.90;99.90
11122;DHT22;5615;49.304;10.576;2023-10-31T02:32:45;9.90;99.90
11122;DHT22;5615;49.304;10.576;2023-10-31T02:35:13;9.90;99.90
11122;DHT22;5615;49.304;10.576;2023-10-31T02:37:40;9.90;99.90
11122;DHT22;5615;49.304;10.576;2023-10-31T02:40:09;9.80;99.90
11122;DHT22;5615;49.304;10.576;2023-10-31T02:42:36;9.90;99.90
11122;DHT22;5615;49.304;10.576;2023-10-31T02:45:04;9.90;99.90
11122;DHT22;5615;49.304;10.576;2023-10-31T02:47:30;9.90;99.90
11122;DHT22;5615;49.304;10.576;2023-10-31T02:49:57;9.90;99.90
11122;DHT22;5615;49.304;10.576;2023-10-31T02:52:24;9.90;99.90
11122;DHT22;5615;49.304;10.576;2023-10-31T02:54:50;9.80;99.90
11122;DHT22;5615;49.304;10.576;2023-10-31T02:57:18;9.80;99.90
11122;DHT22;5615;49.304;10.576;2023-10-31T02:59:45;9.80;99.90
11122;DHT22;5615;49.304;10.576;2023-10-31T03:02:12;9.70;99.90
11122;DHT22;5615;49.304;10.576;2023-10-31T03:04:39;9.70;99.90
11122;DHT22;5615;49.304;10.576;2023-10-31T03:07:05;9.70;99.90
11122;DHT22;5615;49.304;10.576;2023-10-31T03:09:32;9.70;99.90
11122;DHT22;5615;49.304;10.576;2023-10-31T03:11:58;9.60;99.90
11122;DHT22;5615;49.304;10.576;2023-10-31T03:14:26;9.60;99.90
11122;DHT22;5615;49.304;10.576;2023-10-31T03:16:53;9.50;99.90
11122;DHT22;5615;49.304;10.576;2023-10-31T03:19:20;9.50;99.90
11122;DHT22;5615;49.304;10.576;2023-10-31T03:21:46;9.50;99.90
11122;DHT22;5615;49.304;10.576;2023-10-31T03:24:13;9.50;99.90
11122;DHT22;5615;49.304;10.576;2023-10-31T03:26:40;9.40;99.90
11122;DHT22;5615;49.304;10.576;2023-10-31T03:29:06;9.30;99.90
11122;DHT22;5615;49.304;10.576;2023-10-31T03:31:34;9.30;99.90
11122;DHT22;5615;49.304;10.576;2023-10-31T03:34:01;9.30;99.90
11122;DHT22;5615;49.304;10.576;2023-10-31T03:36:28;9.30;99.90
11122;DHT22;5615;49.304;10.576;2023-10-31T03:38:54;9.20;99.90
11122;DHT22;5615;49.304;10.576;2023-10-31T03:41:21;9.20;99.90
11122;DHT22;5615;49.304;10.576;2023-10-31T03:43:48;9.20;99.90
11122;DHT22;5615;49.304;10.576;2023-10-31T03:46:14;9.20;99.90
11122;DHT22;5615;49.304;10.576;2023-10-31T03:48:43;9.10;99.90
11122;DHT22;5615;49.304;10.576;2023-10-31T03:51:09;9.10;99.90
11122;DHT22;5615;49.304;10.576;2023-10-31T03:53:36;9.10;99.90
11122;DHT22;5615;49.304;10.576;2023-10-31T03:56:03;9.20;99.90
11122;DHT22;5615;49.304;10.576;2023-10-31T03:58:30;9.10;99.90
11122;DHT22;5615;49.304;10.576;2023-10-31T04:00:56;9.10;99.90
11122;DHT22;5615;49.304;10.576;2023-10-31T04:03:23;9.20;99.90
11122;DHT22;5615;49.304;10.576;2023-10-31T04:05:51;9.20;99.90
11122;DHT22;5615;49.304;10.576;2023-10-31T04:08:18;9.20;99.90
11122;DHT22;5615;49.304;10.576;2023-10-31T04:10:44;9.10;99.90
11122;DHT22;5615;49.304;10.576;2023-10-31T04:13:11;9.10;99.90
11122;DHT22;5615;49.304;10.576;2023-10-31T04:15:38;9.10;99.90
11122;DHT22;5615;49.304;10.576;2023-10-31T04:18:04;9.10;99.90
11122;DHT22;5615;49.304;10.576;2023-10-31T04:20:31;9.00;99.90
11122;DHT22;5615;49.304;10.576;2023-10-31T04:22:59;9.00;99.90
11122;DHT22;5615;49.304;10.576;2023-10-31T04:25:26;9.00;99.90
11122;DHT22;5615;49.304;10.576;2023-10-31T04:27:54;9.10;99.90
11122;DHT22;5615;49.304;10.576;2023-10-31T04:30:21;9.00;99.90
11122;DHT22;5615;49.304;10.576;2023-10-31T04:32:48;9.00;99.90
11122;DHT22;5615;49.304;10.576;2023-10-31T04:35:14;9.00;99.90
11122;DHT22;5615;49.304;10.576;2023-10-31T04:37:41;9.00;99.90
11122;DHT22;5615;49.304;10.576;2023-10-31T04:40:10;9.00;99.90
11122;DHT22;5615;49.304;10.576;2023-10-31T04:42:38;8.90;99.90
11122;DHT22;5615;49.304;10.576;2023-10-31T04:45:06;9.00;99.90
11122;DHT22;5615;49.304;10.576;2023-10-31T04:47:33;9.00;99.90
11122;DHT22;5615;49.304;10.576;2023-10-31T04:50:00;9.00;99.90
11122;DHT22;5615;49.304;10.576;2023-10-31T04:52:26;9.00;99.90
11122;DHT22;5615;49.304;10.576;2023-10-31T04:54:53;9.00;99.90
11122;DHT22;5615;49.304;10.576;2023-10-31T04:57:21;9.00;99.90
11122;DHT22;5615;49.304;10.576;2023-10-31T04:59:48;9.10;99.90
11122;DHT22;5615;49.304;10.576;2023-10-31T05:02:15;9.00;99.90
11122;DHT22;5615;49.304;10.576;2023-10-31T05:04:41;9.00;99.90
11122;DHT22;5615;49.304;10.576;2023-10-31T05:07:08;9.10;99.90
11122;DHT22;5615;49.304;10.576;2023-10-31T05:09:35;9.10;99.90
11122;DHT22;5615;49.304;10.576;2023-10-31T05:12:02;9.10;99.90
11122;DHT22;5615;49.304;10.576;2023-10-31T05:14:30;9.10;99.90
11122;DHT22;5615;49.304;10.576;2023-10-31T05:16:57;9.10;99.90
11122;DHT22;5615;49.304;10.576;2023-10-31T05:19:24;9.00;99.90
11122;DHT22;5615;49.304;10.576;2023-10-31T05:21:51;9.00;99.90
11122;DHT22;5615;49.304;10.576;2023-10-31T05:24:18;9.00;99.90
11122;DHT22;5615;49.304;10.576;2023-10-31T05:26:46;9.00;99.90
11122;DHT22;5615;49.304;10.576;2023-10-31T05:29:13;8.90;99.90
11122;DHT22;5615;49.304;10.576;2023-10-31T05:31:41;8.90;99.90
11122;DHT22;5615;49.304;10.576;2023-10-31T05:34:08;8.90;99.90
11122;DHT22;5615;49.304;10.576;2023-10-31T05:36:35;8.80;99.90
11122;DHT22;5615;49.304;10.576;2023-10-31T05:39:01;8.80;99.90
11122;DHT22;5615;49.304;10.576;2023-10-31T05:41:28;8.80;99.90
11122;DHT22;5615;49.304;10.576;2023-10-31T05:43:55;8.80;99.90
11122;DHT22;5615;49.304;10.576;2023-10-31T05:46:21;8.70;99.90
11122;DHT22;5615;49.304;10.576;2023-10-31T05:48:49;8.70;99.90
11122;DHT22;5615;49.304;10.576;2023-10-31T05:51:17;8.70;99.90
11122;DHT22;5615;49.304;10.576;2023-10-31T05:53:45;8.70;99.90
11122;DHT22;5615;49.304;10.576;2023-10-31T05:56:12;8.70;99.90
11122;DHT22;5615;49.304;10.576;2023-10-31T05:58:39;8.70;99.90
11122;DHT22;5615;49.304;10.576;2023-10-31T06:01:06;8.70;99.90
11122;DHT22;5615;49.304;10.576;2023-10-31T06:03:34;8.70;99.90
11122;DHT22;5615;49.304;10.576;2023-10-31T06:06:02;8.80;99.90
11122;DHT22;5615;49.304;10.576;2023-10-31T06:08:29;8.80;99.90
11122;DHT22;5615;49.304;10.576;2023-10-31T06:10:56;8.80;99.90
11122;DHT22;5615;49.304;10.576;2023-10-31T06:13:23;8.80;99.90
11122;DHT22;5615;49.304;10.576;2023-10-31T06:15:51;8.80;99.90
11122;DHT22;5615;49.304;10.576;2023-10-31T06:18:18;8.80;99.90
11122;DHT22;5615;49.304;10.576;2023-10-31T06:20:44;8.80;99.90
11122;DHT22;5615;49.304;10.576;2023-10-31T06:23:12;8.80;99.90
11122;DHT22;5615;49.304;10.576;2023-10-31T06:25:39;8.80;99.90
11122;DHT22;5615;49.304;10.576;2023-10-31T06:28:06;8.90;99.90
11122;DHT22;5615;49.304;10.576;2023-10-31T06:30:32;8.90;99.90
11122;DHT22;5615;49.304;10.576;2023-10-31T06:32:59;8.90;99.90
11122;DHT22;5615;49.304;10.576;2023-10-31T06:35:26;8.90;99.90
11122;DHT22;5615;49.304;10.576;2023-10-31T06:37:55;8.90;99.90
11122;DHT22;5615;49.304;10.576;2023-10-31T06:40:23;9.00;99.90
11122;DHT22;5615;49.304;10.576;2023-10-31T06:42:50;9.00;99.90
11122;DHT22;5615;49.304;10.576;2023-10-31T06:45:17;9.00;99.90
11122;DHT22;5615;49.304;10.576;2023-10-31T06:47:43;9.00;99.90
11122;DHT22;5615;49.304;10.576;2023-10-31T06:50:10;9.00;99.90
11122;DHT22;5615;49.304;10.576;2023-10-31T06:52:37;9.00;99.90
11122;DHT22;5615;49.304;10.576;2023-10-31T06:55:04;9.00;99.90
11122;DHT22;5615;49.304;10.576;2023-10-31T06:57:32;9.00;99.90
11122;DHT22;5615;49.304;10.576;2023-10-31T06:59:59;9.00;99.90
11122;DHT22;5615;49.304;10.576;2023-10-31T07:02:25;9.00;99.90
11122;DHT22;5615;49.304;10.576;2023-10-31T07:04:52;9.00;99.90
11122;DHT22;5615;49.304;10.576;2023-10-31T07:07:18;9.10;99.90
11122;DHT22;5615;49.304;10.576;2023-10-31T07:09:45;9.10;99.90
11122;DHT22;5615;49.304;10.576;2023-10-31T07:12:12;9.10;99.90
11122;DHT22;5615;49.304;10.576;2023-10-31T07:14:40;9.20;99.90
11122;DHT22;5615;49.304;10.576;2023-10-31T07:17:06;9.20;99.90
11122;DHT22;5615;49.304;10.576;2023-10-31T07:19:33;9.20;99.90
11122;DHT22;5615;49.304;10.576;2023-10-31T07:22:00;9.30;99.90
11122;DHT22;5615;49.304;10.576;2023-10-31T07:24:27;9.30;99.90
11122;DHT22;5615;49.304;10.576;2023-10-31T07:26:53;9.30;99.90
11122;DHT22;5615;49.304;10.576;2023-10-31T07:29:20;9.30;99.90
11122;DHT22;5615;49.304;10.576;2023-10-31T07:31:48;9.30;99.90
11122;DHT22;5615;49.304;10.576;2023-10-31T07:34:15;9.40;99.90
11122;DHT22;5615;49.304;10.576;2023-10-31T07:36:42;9.40;99.90
11122;DHT22;5615;49.304;10.576;2023-10-31T07:39:09;9.50;99.90
11122;DHT22;5615;49.304;10.576;2023-10-31T07:41:38;9.50;99.90
11122;DHT22;5615;49.304;10.576;2023-10-31T07:44:04;9.50;99.90
11122;DHT22;5615;49.304;10.576;2023-10-31T07:46:34;9.50;99.90
11122;DHT22;5615;49.304;10.576;2023-10-31T07:49:02;9.50;99.90
11122;DHT22;5615;49.304;10.576;2023-10-31T07:51:29;9.50;99.90
11122;DHT22;5615;49.304;10.576;2023-10-31T07:53:55;9.40;99.90
11122;DHT22;5615;49.304;10.576;2023-10-31T07:56:23;9.40;99.90
11122;DHT22;5615;49.304;10.576;2023-10-31T07:58:50;9.40;99.90
11122;DHT22;5615;49.304;10.576;2023-10-31T08:01:18;9.50;99.90
11122;DHT22;5615;49.304;10.576;2023-10-31T08:03:45;9.40;99.90
11122;DHT22;5615;49.304;10.576;2023-10-31T08:06:13;9.40;99.90
11122;DHT22;5615;49.304;10.576;2023-10-31T08:08:40;9.20;99.90
11122;DHT22;5615;49.304;10.576;2023-10-31T08:11:07;9.00;99.90
11122;DHT22;5615;49.304;10.576;2023-10-31T08:13:35;9.00;99.90
11122;DHT22;5615;49.304;10.576;2023-10-31T08:16:02;8.90;99.90
11122;DHT22;5615;49.304;10.576;2023-10-31T08:18:29;9.00;99.90
11122;DHT22;5615;49.304;10.576;2023-10-31T08:20:56;9.00;99.90
11122;DHT22;5615;49.304;10.576;2023-10-31T08:23:25;9.10;99.90
11122;DHT22;5615;49.304;10.576;2023-10-31T08:25:52;9.10;99.90
11122;DHT22;5615;49.304;10.576;2023-10-31T08:28:19;9.10;99.90
11122;DHT22;5615;49.304;10.576;2023-10-31T08:30:46;9.20;99.90
11122;DHT22;5615;49.304;10.576;2023-10-31T08:33:13;9.20;99.90
11122;DHT22;5615;49.304;10.576;2023-10-31T08:35:39;9.20;99.90
11122;DHT22;5615;49.304;10.576;2023-10-31T08:38:07;9.30;99.90
11122;DHT22;5615;49.304;10.576;2023-10-31T08:40:34;9.20;99.90
11122;DHT22;5615;49.304;10.576;2023-10-31T08:43:00;9.30;99.90
11122;DHT22;5615;49.304;10.576;2023-10-31T08:45:29;9.30;99.90
11122;DHT22;5615;49.304;10.576;2023-10-31T08:47:56;9.30;99.90
11122;DHT22;5615;49.304;10.576;2023-10-31T08:50:22;9.20;99.90
11122;DHT22;5615;49.304;10.576;2023-10-31T08:52:50;9.00;99.90
11122;DHT22;5615;49.304;10.576;2023-10-31T08:55:16;9.00;99.90
11122;DHT22;5615;49.304;10.576;2023-10-31T08:57:44;8.90;99.90
11122;DHT22;5615;49.304;10.576;2023-10-31T09:00:12;8.90;99.90
11122;DHT22;5615;49.304;10.576;2023-10-31T09:02:39;8.90;99.90
11122;DHT22;5615;49.304;10.576;2023-10-31T09:05:06;9.00;99.90
11122;DHT22;5615;49.304;10.576;2023-10-31T09:07:33;9.00;99.90
11122;DHT22;5615;49.304;10.576;2023-10-31T09:09:59;8.90;99.90
11122;DHT22;5615;49.304;10.576;2023-10-31T09:12:26;9.00;99.90
11122;DHT22;5615;49.304;10.576;2023-10-31T09:14:54;9.10;99.90
11122;DHT22;5615;49.304;10.576;2023-10-31T09:17:21;9.10;99.90
11122;DHT22;5615;49.304;10.576;2023-10-31T09:19:47;9.20;99.90
11122;DHT22;5615;49.304;10.576;2023-10-31T09:22:14;9.20;99.90
11122;DHT22;5615;49.304;10.576;2023-10-31T09:24:41;9.20;99.90
11122;DHT22;5615;49.304;10.576;2023-10-31T09:27:09;9.20;99.90
11122;DHT22;5615;49.304;10.576;2023-10-31T09:29:36;9.30;99.90
11122;DHT22;5615;49.304;10.576;2023-10-31T09:32:06;9.20;99.90
11122;DHT22;5615;49.304;10.576;2023-10-31T09:34:32;9.40;99.90
11122;DHT22;5615;49.304;10.576;2023-10-31T09:36:59;9.50;99.90
11122;DHT22;5615;49.304;10.576;2023-10-31T09:39:26;9.60;99.90
11122;DHT22;5615;49.304;10.576;2023-10-31T09:41:53;9.70;99.90
11122;DHT22;5615;49.304;10.576;2023-10-31T09:44:20;9.80;99.90
11122;DHT22;5615;49.304;10.576;2023-10-31T09:46:47;9.70;99.90
11122;DHT22;5615;49.304;10.576;2023-10-31T09:49:15;10.00;99.90
11122;DHT22;5615;49.304;10.576;2023-10-31T09:51:42;9.90;99.90
11122;DHT22;5615;49.304;10.576;2023-10-31T09:54:09;9.80;99.90
11122;DHT22;5615;49.304;10.576;2023-10-31T09:56:38;9.90;99.90
11122;DHT22;5615;49.304;10.576;2023-10-31T09:59:05;9.80;99.90
11122;DHT22;5615;49.304;10.576;2023-10-31T10:01:31;10.00;99.90
11122;DHT22;5615;49.304;10.576;2023-10-31T10:03:58;9.90;99.90
11122;DHT22;5615;49.304;10.576;2023-10-31T10:06:26;9.90;99.90
11122;DHT22;5615;49.304;10.576;2023-10-31T10:08:55;10.00;99.90
11122;DHT22;5615;49.304;10.576;2023-10-31T10:11:22;10.10;99.90
11122;DHT22;5615;49.304;10.576;2023-10-31T10:13:49;10.00;99.90
11122;DHT22;5615;49.304;10.576;2023-10-31T10:16:28;10.10;99.90
11122;DHT22;5615;49.304;10.576;2023-10-31T10:18:55;10.00;99.90
11122;DHT22;5615;49.304;10.576;2023-10-31T10:21:22;10.10;99.90
11122;DHT22;5615;49.304;10.576;2023-10-31T10:23:51;10.10;99.90
11122;DHT22;5615;49.304;10.576;2023-10-31T10:26:18;10.00;99.90
11122;DHT22;5615;49.304;10.576;2023-10-31T10:28:46;10.00;99.90
11122;DHT22;5615;49.304;10.576;2023-10-31T10:31:14;9.90;99.90
11122;DHT22;5615;49.304;10.576;2023-10-31T10:33:41;9.70;99.90
11122;DHT22;5615;49.304;10.576;2023-10-31T10:36:09;9.50;99.90
11122;DHT22;5615;49.304;10.576;2023-10-31T10:38:37;9.40;99.90
11122;DHT22;5615;49.304;10.576;2023-10-31T10:41:08;9.30;99.90
11122;DHT22;5615;49.304;10.576;2023-10-31T10:43:37;9.20;99.90
11122;DHT22;5615;49.304;10.576;2023-10-31T10:46:05;9.20;99.90
11122;DHT22;5615;49.304;10.576;2023-10-31T10:48:35;9.20;99.90
11122;DHT22;5615;49.304;10.576;2023-10-31T10:51:07;9.20;99.90
11122;DHT22;5615;49.304;10.576;2023-10-31T10:53:44;9.30;99.90
11122;DHT22;5615;49.304;10.576;2023-10-31T10:56:19;9.40;99.90
11122;DHT22;5615;49.304;10.576;2023-10-31T10:58:51;9.40;99.90
11122;DHT22;5615;49.304;10.576;2023-10-31T11:01:22;9.40;99.90
11122;DHT22;5615;49.304;10.576;2023-10-31T11:03:49;9.50;99.90
11122;DHT22;5615;49.304;10.576;2023-10-31T11:06:17;9.50;99.90
11122;DHT22;5615;49.304;10.576;2023-10-31T11:08:45;9.60;99.90
11122;DHT22;5615;49.304;10.576;2023-10-31T11:11:13;9.60;99.90
11122;DHT22;5615;49.304;10.576;2023-10-31T11:13:43;9.70;99.90
11122;DHT22;5615;49.304;10.576;2023-10-31T11:16:15;9.80;99.90
11122;DHT22;5615;49.304;10.576;2023-10-31T11:18:44;10.00;99.90
11122;DHT22;5615;49.304;10.576;2023-10-31T11:21:11;10.20;99.90
11122;DHT22;5615;49.304;10.576;2023-10-31T11:23:37;10.20;99.90
11122;DHT22;5615;49.304;10.576;2023-10-31T11:26:06;10.30;99.90
11122;DHT22;5615;49.304;10.576;2023-10-31T11:28:33;10.30;99.90
11122;DHT22;5615;49.304;10.576;2023-10-31T11:31:02;10.30;99.90
11122;DHT22;5615;49.304;10.576;2023-10-31T11:33:29;10.40;99.90
11122;DHT22;5615;49.304;10.576;2023-10-31T11:36:00;10.50;99.90
11122;DHT22;5615;49.304;10.576;2023-10-31T11:38:32;10.50;99.90
11122;DHT22;5615;49.304;10.576;2023-10-31T11:41:00;10.70;99.90
11122;DHT22;5615;49.304;10.576;2023-10-31T11:43:52;11.20;99.90
11122;DHT22;5615;49.304;10.576;2023-10-31T11:46:22;11.10;99.90
11122;DHT22;5615;49.304;10.576;2023-10-31T11:48:51;11.30;99.90
11122;DHT22;5615;49.304;10.576;2023-10-31T11:51:18;11.80;99.90
11122;DHT22;5615;49.304;10.576;2023-10-31T11:53:45;11.80;99.90
11122;DHT22;5615;49.304;10.576;2023-10-31T11:56:12;11.90;99.90
11122;DHT22;5615;49.304;10.576;2023-10-31T11:58:39;12.00;99.90
11122;DHT22;5615;49.304;10.576;2023-10-31T12:01:07;12.60;99.90
11122;DHT22;5615;49.304;10.576;2023-10-31T12:03:39;13.00;99.90
11122;DHT22;5615;49.304;10.576;2023-10-31T12:06:06;14.20;99.90
11122;DHT22;5615;49.304;10.576;2023-10-31T12:08:36;14.30;99.90
11122;DHT22;5615;49.304;10.576;2023-10-31T12:11:07;15.90;99.90
11122;DHT22;5615;49.304;10.576;2023-10-31T12:13:35;14.80;99.90
11122;DHT22;5615;49.304;10.576;2023-10-31T12:16:03;15.60;99.90
11122;DHT22;5615;49.304;10.576;2023-10-31T12:18:29;16.60;99.90
11122;DHT22;5615;49.304;10.576;2023-10-31T12:20:57;15.50;99.90
11122;DHT22;5615;49.304;10.576;2023-10-31T12:23:24;13.40;99.90
11122;DHT22;5615;49.304;10.576;2023-10-31T12:25:51;12.70;99.90
11122;DHT22;5615;49.304;10.576;2023-10-31T12:28:18;12.30;99.90
11122;DHT22;5615;49.304;10.576;2023-10-31T12:30:46;12.00;99.90
11122;DHT22;5615;49.304;10.576;2023-10-31T12:33:13;12.00;99.90
11122;DHT22;5615;49.304;10.576;2023-10-31T12:35:40;11.90;99.90
11122;DHT22;5615;49.304;10.576;2023-10-31T12:38:10;11.80;99.90
11122;DHT22;5615;49.304;10.576;2023-10-31T12:40:38;12.00;99.90
11122;DHT22;5615;49.304;10.576;2023-10-31T12:43:05;12.80;99.90
11122;DHT22;5615;49.304;10.576;2023-10-31T12:45:32;13.70;99.90
11122;DHT22;5615;49.304;10.576;2023-10-31T12:48:02;13.40;99.90
11122;DHT22;5615;49.304;10.576;2023-10-31T12:50:29;12.90;99.90
11122;DHT22;5615;49.304;10.576;2023-10-31T12:52:56;12.40;99.90
11122;DHT22;5615;49.304;10.576;2023-10-31T12:55:27;13.40;99.90
11122;DHT22;5615;49.304;10.576;2023-10-31T12:57:55;13.10;99.90
11122;DHT22;5615;49.304;10.576;2023-10-31T13:00:22;15.00;99.90
11122;DHT22;5615;49.304;10.576;2023-10-31T13:02:59;14.10;99.90
11122;DHT22;5615;49.304;10.576;2023-10-31T13:05:27;14.40;99.90
11122;DHT22;5615;49.304;10.576;2023-10-31T13:07:55;13.70;99.90
11122;DHT22;5615;49.304;10.576;2023-10-31T13:10:23;12.70;99.90
11122;DHT22;5615;49.304;10.576;2023-10-31T13:12:52;13.40;99.90
11122;DHT22;5615;49.304;10.576;2023-10-31T13:15:20;14.90;99.90
11122;DHT22;5615;49.304;10.576;2023-10-31T13:17:48;16.50;99.90
11122;DHT22;5615;49.304;10.576;2023-10-31T13:20:16;17.80;99.90
11122;DHT22;5615;49.304;10.576;2023-10-31T13:22:43;18.40;99.90
11122;DHT22;5615;49.304;10.576;2023-10-31T13:25:11;17.20;99.90
11122;DHT22;5615;49.304;10.576;2023-10-31T13:27:39;18.80;99.90
11122;DHT22;5615;49.304;10.576;2023-10-31T13:30:09;19.30;99.90
11122;DHT22;5615;49.304;10.576;2023-10-31T13:32:37;19.00;99.90
11122;DHT22;5615;49.304;10.576;2023-10-31T13:35:04;16.30;99.90
11122;DHT22;5615;49.304;10.576;2023-10-31T13:37:31;15.30;99.90
11122;DHT22;5615;49.304;10.576;2023-10-31T13:39:58;15.10;99.90
11122;DHT22;5615;49.304;10.576;2023-10-31T13:42:24;14.40;99.90
11122;DHT22;5615;49.304;10.576;2023-10-31T13:44:51;13.70;99.90
11122;DHT22;5615;49.304;10.576;2023-10-31T13:47:19;12.70;99.90
11122;DHT22;5615;49.304;10.576;2023-10-31T13:49:46;12.30;99.90
11122;DHT22;5615;49.304;10.576;2023-10-31T13:52:14;12.50;99.90
11122;DHT22;5615;49.304;10.576;2023-10-31T13:54:40;12.40;99.90
11122;DHT22;5615;49.304;10.576;2023-10-31T13:57:07;12.50;99.90
11122;DHT22;5615;49.304;10.576;2023-10-31T13:59:34;12.60;99.90
11122;DHT22;5615;49.304;10.576;2023-10-31T14:02:01;13.90;99.90
11122;DHT22;5615;49.304;10.576;2023-10-31T14:04:29;13.50;99.90
11122;DHT22;5615;49.304;10.576;2023-10-31T14:06:56;12.90;99.90
11122;DHT22;5615;49.304;10.576;2023-10-31T14:09:23;12.70;99.90
11122;DHT22;5615;49.304;10.576;2023-10-31T14:11:49;12.10;99.90
11122;DHT22;5615;49.304;10.576;2023-10-31T14:14:16;12.10;99.90
11122;DHT22;5615;49.304;10.576;2023-10-31T14:16:44;12.10;99.90
11122;DHT22;5615;49.304;10.576;2023-10-31T14:19:11;12.10;99.90
11122;DHT22;5615;49.304;10.576;2023-10-31T14:21:40;12.10;99.90
11122;DHT22;5615;49.304;10.576;2023-10-31T14:24:08;12.00;99.90
11122;DHT22;5615;49.304;10.576;2023-10-31T14:26:34;11.80;99.90
11122;DHT22;5615;49.304;10.576;2023-10-31T14:29:02;11.80;99.90
11122;DHT22;5615;49.304;10.576;2023-10-31T14:31:29;11.80;99.90
11122;DHT22;5615;49.304;10.576;2023-10-31T14:33:55;11.80;99.90
11122;DHT22;5615;49.304;10.576;2023-10-31T14:36:23;12.10;99.90
11122;DHT22;5615;49.304;10.576;2023-10-31T14:38:51;12.70;99.90
11122;DHT22;5615;49.304;10.576;2023-10-31T14:41:17;13.70;99.90
11122;DHT22;5615;49.304;10.576;2023-10-31T14:43:44;14.30;99.90
11122;DHT22;5615;49.304;10.576;2023-10-31T14:46:10;13.40;99.90
11122;DHT22;5615;49.304;10.576;2023-10-31T14:48:37;13.20;99.90
11122;DHT22;5615;49.304;10.576;2023-10-31T14:51:04;13.60;99.90
11122;DHT22;5615;49.304;10.576;2023-10-31T14:53:31;13.20;99.90
11122;DHT22;5615;49.304;10.576;2023-10-31T14:55:59;12.70;99.90
11122;DHT22;5615;49.304;10.576;2023-10-31T14:58:27;12.50;99.90
11122;DHT22;5615;49.304;10.576;2023-10-31T15:00:53;12.10;99.90
11122;DHT22;5615;49.304;10.576;2023-10-31T15:03:20;12.00;99.90
11122;DHT22;5615;49.304;10.576;2023-10-31T15:05:47;13.60;99.90
11122;DHT22;5615;49.304;10.576;2023-10-31T15:08:14;15.00;99.90
11122;DHT22;5615;49.304;10.576;2023-10-31T15:10:41;15.00;99.90
11122;DHT22;5615;49.304;10.576;2023-10-31T15:13:09;15.40;99.90
11122;DHT22;5615;49.304;10.576;2023-10-31T15:15:35;14.50;99.90
11122;DHT22;5615;49.304;10.576;2023-10-31T15:18:02;13.30;99.90
11122;DHT22;5615;49.304;10.576;2023-10-31T15:20:29;12.60;99.90
11122;DHT22;5615;49.304;10.576;2023-10-31T15:22:56;12.60;99.90
11122;DHT22;5615;49.304;10.576;2023-10-31T15:25:22;12.10;99.90
11122;DHT22;5615;49.304;10.576;2023-10-31T15:27:49;11.90;99.90
11122;DHT22;5615;49.304;10.576;2023-10-31T15:30:17;11.60;99.90
11122;DHT22;5615;49.304;10.576;2023-10-31T15:32:44;11.40;99.90
11122;DHT22;5615;49.304;10.576;2023-10-31T15:35:10;11.30;99.90
11122;DHT22;5615;49.304;10.576;2023-10-31T15:37:37;11.10;99.90
11122;DHT22;5615;49.304;10.576;2023-10-31T15:40:06;11.00;99.90